sensor_id;sensor_type;location;lat;lon;timestamp;temperature;humidity
54168;DHT22;40072;50.958;3.592;2023-02-28T00:01:07;1.10;99.90
54168;DHT22;40072;50.958;3.592;2023-02-28T00:03:32;0.90;99.90
54168;DHT22;40072;50.958;3.592;2023-02-28T00:06:02;0.90;99.90
54168;DHT22;40072;50.958;3.592;2023-02-28T00:08:28;0.80;99.90
54168;DHT22;40072;50.958;3.592;2023-02-28T00:10:53;0.80;99.90
54168;DHT22;40072;50.958;3.592;2023-02-28T00:13:19;0.70;99.90
54168;DHT22;40072;50.958;3.592;2023-02-28T00:15:45;0.60;99.90
54168;DHT22;40072;50.958;3.592;2023-02-28T00:18:11;0.50;99.90
54168;DHT22;40072;50.958;3.592;2023-02-28T00:20:37;0.50;99.90
54168;DHT22;40072;50.958;3.592;2023-02-28T00:23:03;0.50;99.90
54168;DHT22;40072;50.958;3.592;2023-02-28T00:25:28;0.30;99.90
54168;DHT22;40072;50.958;3.592;2023-02-28T00:27:54;0.20;99.90
54168;DHT22;40072;50.958;3.592;2023-02-28T00:30:23;0.20;99.90
54168;DHT22;40072;50.958;3.592;2023-02-28T00:32:50;0.10;99.90
54168;DHT22;40072;50.958;3.592;2023-02-28T00:35:16;0.10;99.90
54168;DHT22;40072;50.958;3.592;2023-02-28T00:37:41;0.10;99.90
54168;DHT22;40072;50.958;3.592;2023-02-28T00:40:08;0.00;99.90
54168;DHT22;40072;50.958;3.592;2023-02-28T00:42:35;0.00;99.90
54168;DHT22;40072;50.958;3.592;2023-02-28T00:45:00;-0.10;99.90
54168;DHT22;40072;50.958;3.592;2023-02-28T00:47:26;-0.10;99.90
54168;DHT22;40072;50.958;3.592;2023-02-28T00:49:52;-0.10;99.90
54168;DHT22;40072;50.958;3.592;2023-02-28T00:52:18;-0.10;99.90
54168;DHT22;40072;50.958;3.592;2023-02-28T00:54:43;-0.10;99.90
54168;DHT22;40072;50.958;3.592;2023-02-28T00:57:09;-0.20;99.90
54168;DHT22;40072;50.958;3.592;2023-02-28T00:59:35;-0.20;99.90
54168;DHT22;40072;50.958;3.592;2023-02-28T01:02:01;-0.30;99.90
54168;DHT22;40072;50.958;3.592;2023-02-28T01:04:26;-0.30;99.90
54168;DHT22;40072;50.958;3.592;2023-02-28T01:06:52;-0.20;99.90
54168;DHT22;40072;50.958;3.592;2023-02-28T01:09:18;-0.20;99.90
54168;DHT22;40072;50.958;3.592;2023-02-28T01:11:44;-0.30;99.90
54168;DHT22;40072;50.958;3.592;2023-02-28T01:14:13;-0.40;99.90
54168;DHT22;40072;50.958;3.592;2023-02-28T01:16:39;-0.30;99.90
54168;DHT22;40072;50.958;3.592;2023-02-28T01:19:04;-0.40;99.90
54168;DHT22;40072;50.958;3.592;2023-02-28T01:21:30;-0.40;99.90
54168;DHT22;40072;50.958;3.592;2023-02-28T01:23:57;-0.30;99.90
54168;DHT22;40072;50.958;3.592;2023-02-28T01:26:23;-0.40;99.90
54168;DHT22;40072;50.958;3.592;2023-02-28T01:28:50;-0.50;99.90
54168;DHT22;40072;50.958;3.592;2023-02-28T01:31:17;-0.60;99.90
54168;DHT22;40072;50.958;3.592;2023-02-28T01:33:43;-0.60;99.90
54168;DHT22;40072;50.958;3.592;2023-02-28T01:36:14;-0.40;99.90
54168;DHT22;40072;50.958;3.592;2023-02-28T01:38:41;-0.50;99.90
54168;DHT22;40072;50.958;3.592;2023-02-28T01:41:08;-0.70;99.90
54168;DHT22;40072;50.958;3.592;2023-02-28T01:46:07;-0.60;99.90
54168;DHT22;40072;50.958;3.592;2023-02-28T01:48:38;-0.60;99.90
54168;DHT22;40072;50.958;3.592;2023-02-28T01:51:10;-0.70;99.90
54168;DHT22;40072;50.958;3.592;2023-02-28T01:53:41;-0.70;99.90
54168;DHT22;40072;50.958;3.592;2023-02-28T01:56:08;-0.70;99.90
54168;DHT22;40072;50.958;3.592;2023-02-28T01:58:36;-0.70;99.90
54168;DHT22;40072;50.958;3.592;2023-02-28T02:01:02;-0.80;99.90
54168;DHT22;40072;50.958;3.592;2023-02-28T02:03:29;-0.90;99.90
54168;DHT22;40072;50.958;3.592;2023-02-28T02:05:55;-0.90;99.90
54168;DHT22;40072;50.958;3.592;2023-02-28T02:08:26;-0.80;99.90
54168;DHT22;40072;50.958;3.592;2023-02-28T02:10:59;-0.90;99.90
54168;DHT22;40072;50.958;3.592;2023-02-28T02:19:00;-1.00;99.90
54168;DHT22;40072;50.958;3.592;2023-02-28T02:26:50;-0.90;99.90
54168;DHT22;40072;50.958;3.592;2023-02-28T02:35:12;-0.90;99.90
54168;DHT22;40072;50.958;3.592;2023-02-28T02:37:43;-1.00;99.90
54168;DHT22;40072;50.958;3.592;2023-02-28T02:40:23;-1.00;99.90
54168;DHT22;40072;50.958;3.592;2023-02-28T02:43:07;-1.00;99.90
54168;DHT22;40072;50.958;3.592;2023-02-28T02:45:59;-1.00;99.90
54168;DHT22;40072;50.958;3.592;2023-02-28T02:48:29;-1.00;99.90
54168;DHT22;40072;50.958;3.592;2023-02-28T02:50:59;-1.10;99.90
54168;DHT22;40072;50.958;3.592;2023-02-28T02:53:39;-1.10;99.90
54168;DHT22;40072;50.958;3.592;2023-02-28T02:56:07;-1.10;99.90
54168;DHT22;40072;50.958;3.592;2023-02-28T02:58:37;-1.20;99.90
54168;DHT22;40072;50.958;3.592;2023-02-28T03:01:09;-1.10;99.90
54168;DHT22;40072;50.958;3.592;2023-02-28T03:03:36;-1.20;99.90
54168;DHT22;40072;50.958;3.592;2023-02-28T03:06:02;-1.20;99.90
54168;DHT22;40072;50.958;3.592;2023-02-28T03:08:35;-1.30;99.90
54168;DHT22;40072;50.958;3.592;2023-02-28T03:11:05;-1.30;99.90
54168;DHT22;40072;50.958;3.592;2023-02-28T03:22:01;-1.30;99.90
54168;DHT22;40072;50.958;3.592;2023-02-28T03:24:56;-1.30;99.90
54168;DHT22;40072;50.958;3.592;2023-02-28T03:27:32;-1.30;99.90
54168;DHT22;40072;50.958;3.592;2023-02-28T03:30:08;-1.30;99.90
54168;DHT22;40072;50.958;3.592;2023-02-28T03:32:51;-1.30;99.90
54168;DHT22;40072;50.958;3.592;2023-02-28T03:35:22;-1.30;99.90
54168;DHT22;40072;50.958;3.592;2023-02-28T03:37:55;-1.20;99.90
54168;DHT22;40072;50.958;3.592;2023-02-28T03:40:25;-1.20;99.90
54168;DHT22;40072;50.958;3.592;2023-02-28T03:42:59;-1.20;99.90
54168;DHT22;40072;50.958;3.592;2023-02-28T03:45:28;-1.00;99.90
54168;DHT22;40072;50.958;3.592;2023-02-28T03:47:58;-1.10;99.90
54168;DHT22;40072;50.958;3.592;2023-02-28T03:53:04;-1.10;99.90
54168;DHT22;40072;50.958;3.592;2023-02-28T03:55:39;-1.10;99.90
54168;DHT22;40072;50.958;3.592;2023-02-28T03:58:26;-1.00;99.90
54168;DHT22;40072;50.958;3.592;2023-02-28T04:01:08;-1.10;99.90
54168;DHT22;40072;50.958;3.592;2023-02-28T04:03:38;-1.10;99.90
54168;DHT22;40072;50.958;3.592;2023-02-28T04:06:07;-1.00;99.90
54168;DHT22;40072;50.958;3.592;2023-02-28T04:08:33;-1.10;99.90
54168;DHT22;40072;50.958;3.592;2023-02-28T04:11:14;-1.10;99.90
54168;DHT22;40072;50.958;3.592;2023-02-28T04:13:42;-1.00;99.90
54168;DHT22;40072;50.958;3.592;2023-02-28T04:16:08;-0.80;99.90
54168;DHT22;40072;50.958;3.592;2023-02-28T04:18:41;-0.80;99.90
54168;DHT22;40072;50.958;3.592;2023-02-28T04:21:09;-0.70;99.90
54168;DHT22;40072;50.958;3.592;2023-02-28T04:23:34;-0.50;99.90
54168;DHT22;40072;50.958;3.592;2023-02-28T04:26:00;-0.50;99.90
54168;DHT22;40072;50.958;3.592;2023-02-28T04:28:26;-0.30;99.90
54168;DHT22;40072;50.958;3.592;2023-02-28T04:30:56;-0.30;99.90
54168;DHT22;40072;50.958;3.592;2023-02-28T04:33:21;-0.10;99.90
54168;DHT22;40072;50.958;3.592;2023-02-28T04:35:47;0.00;99.90
54168;DHT22;40072;50.958;3.592;2023-02-28T04:38:13;0.10;99.90
54168;DHT22;40072;50.958;3.592;2023-02-28T04:40:38;0.30;99.90
54168;DHT22;40072;50.958;3.592;2023-02-28T04:43:04;0.30;99.90
54168;DHT22;40072;50.958;3.592;2023-02-28T04:45:30;0.50;99.90
54168;DHT22;40072;50.958;3.592;2023-02-28T04:47:57;0.60;99.90
54168;DHT22;40072;50.958;3.592;2023-02-28T04:50:23;0.70;99.90
54168;DHT22;40072;50.958;3.592;2023-02-28T04:52:49;0.80;99.90
54168;DHT22;40072;50.958;3.592;2023-02-28T04:55:15;0.90;99.90
54168;DHT22;40072;50.958;3.592;2023-02-28T04:57:40;1.00;99.90
54168;DHT22;40072;50.958;3.592;2023-02-28T05:00:09;1.20;99.90
54168;DHT22;40072;50.958;3.592;2023-02-28T05:02:37;1.10;99.90
54168;DHT22;40072;50.958;3.592;2023-02-28T05:05:05;1.20;99.90
54168;DHT22;40072;50.958;3.592;2023-02-28T05:07:30;1.30;99.90
54168;DHT22;40072;50.958;3.592;2023-02-28T05:09:56;1.60;99.90
54168;DHT22;40072;50.958;3.592;2023-02-28T05:12:22;1.50;99.90
54168;DHT22;40072;50.958;3.592;2023-02-28T05:14:47;1.50;99.90
54168;DHT22;40072;50.958;3.592;2023-02-28T05:17:13;1.50;99.90
54168;DHT22;40072;50.958;3.592;2023-02-28T05:19:38;1.60;99.90
54168;DHT22;40072;50.958;3.592;2023-02-28T05:22:04;1.50;99.90
54168;DHT22;40072;50.958;3.592;2023-02-28T05:24:30;1.60;99.90
54168;DHT22;40072;50.958;3.592;2023-02-28T05:26:55;1.70;99.90
54168;DHT22;40072;50.958;3.592;2023-02-28T05:29:21;1.70;99.90
54168;DHT22;40072;50.958;3.592;2023-02-28T05:31:48;1.60;99.90
54168;DHT22;40072;50.958;3.592;2023-02-28T05:34:13;1.70;99.90
54168;DHT22;40072;50.958;3.592;2023-02-28T05:36:41;1.70;99.90
54168;DHT22;40072;50.958;3.592;2023-02-28T05:39:07;1.70;99.90
54168;DHT22;40072;50.958;3.592;2023-02-28T05:41:41;1.70;99.90
54168;DHT22;40072;50.958;3.592;2023-02-28T05:44:07;1.80;99.90
54168;DHT22;40072;50.958;3.592;2023-02-28T05:46:33;2.00;99.90
54168;DHT22;40072;50.958;3.592;2023-02-28T05:48:58;2.10;99.90
54168;DHT22;40072;50.958;3.592;2023-02-28T05:51:25;2.00;99.90
54168;DHT22;40072;50.958;3.592;2023-02-28T05:53:51;2.00;99.90
54168;DHT22;40072;50.958;3.592;2023-02-28T05:56:17;1.90;99.90
54168;DHT22;40072;50.958;3.592;2023-02-28T05:58:42;1.90;99.90
54168;DHT22;40072;50.958;3.592;2023-02-28T06:01:23;2.00;99.90
54168;DHT22;40072;50.958;3.592;2023-02-28T06:03:49;2.00;99.90
54168;DHT22;40072;50.958;3.592;2023-02-28T06:06:15;2.00;99.90
54168;DHT22;40072;50.958;3.592;2023-02-28T06:08:40;2.00;99.90
54168;DHT22;40072;50.958;3.592;2023-02-28T06:11:08;2.10;99.90
54168;DHT22;40072;50.958;3.592;2023-02-28T06:13:34;2.10;99.90
54168;DHT22;40072;50.958;3.592;2023-02-28T06:16:03;2.00;99.90
54168;DHT22;40072;50.958;3.592;2023-02-28T06:18:28;2.20;99.90
54168;DHT22;40072;50.958;3.592;2023-02-28T06:20:54;2.20;99.90
54168;DHT22;40072;50.958;3.592;2023-02-28T06:23:21;2.30;99.90
54168;DHT22;40072;50.958;3.592;2023-02-28T06:25:47;2.40;99.90
54168;DHT22;40072;50.958;3.592;2023-02-28T06:28:13;2.30;99.90
54168;DHT22;40072;50.958;3.592;2023-02-28T06:30:39;2.40;99.90
54168;DHT22;40072;50.958;3.592;2023-02-28T06:33:04;2.40;99.90
54168;DHT22;40072;50.958;3.592;2023-02-28T06:35:30;2.40;99.90
54168;DHT22;40072;50.958;3.592;2023-02-28T06:37:57;2.50;99.90
54168;DHT22;40072;50.958;3.592;2023-02-28T06:40:22;2.60;99.90
54168;DHT22;40072;50.958;3.592;2023-02-28T06:42:48;2.50;99.90
54168;DHT22;40072;50.958;3.592;2023-02-28T06:45:14;2.50;99.90
54168;DHT22;40072;50.958;3.592;2023-02-28T06:47:41;2.50;99.90
54168;DHT22;40072;50.958;3.592;2023-02-28T06:50:10;2.80;99.90
54168;DHT22;40072;50.958;3.592;2023-02-28T06:52:35;2.90;99.90
54168;DHT22;40072;50.958;3.592;2023-02-28T06:55:04;3.30;99.90
54168;DHT22;40072;50.958;3.592;2023-02-28T06:57:30;3.50;99.90
54168;DHT22;40072;50.958;3.592;2023-02-28T06:59:58;3.40;99.90
54168;DHT22;40072;50.958;3.592;2023-02-28T07:02:24;3.30;99.90
54168;DHT22;40072;50.958;3.592;2023-02-28T07:04:49;3.20;99.90
54168;DHT22;40072;50.958;3.592;2023-02-28T07:07:15;3.40;99.90
54168;DHT22;40072;50.958;3.592;2023-02-28T07:09:41;3.50;99.90
54168;DHT22;40072;50.958;3.592;2023-02-28T07:12:06;3.70;99.90
54168;DHT22;40072;50.958;3.592;2023-02-28T07:14:32;3.40;99.90
54168;DHT22;40072;50.958;3.592;2023-02-28T07:16:58;3.00;99.90
54168;DHT22;40072;50.958;3.592;2023-02-28T07:19:23;2.70;99.90
54168;DHT22;40072;50.958;3.592;2023-02-28T07:21:49;3.00;99.90
54168;DHT22;40072;50.958;3.592;2023-02-28T07:24:15;3.20;99.90
54168;DHT22;40072;50.958;3.592;2023-02-28T07:26:43;3.30;99.90
54168;DHT22;40072;50.958;3.592;2023-02-28T07:29:09;3.40;99.90
54168;DHT22;40072;50.958;3.592;2023-02-28T07:31:34;3.40;99.90
54168;DHT22;40072;50.958;3.592;2023-02-28T07:34:00;3.40;99.90
54168;DHT22;40072;50.958;3.592;2023-02-28T07:36:26;3.60;99.90
54168;DHT22;40072;50.958;3.592;2023-02-28T07:38:51;3.90;99.90
54168;DHT22;40072;50.958;3.592;2023-02-28T07:41:19;4.00;99.90
54168;DHT22;40072;50.958;3.592;2023-02-28T07:43:45;3.90;99.90
54168;DHT22;40072;50.958;3.592;2023-02-28T07:46:14;3.90;99.90
54168;DHT22;40072;50.958;3.592;2023-02-28T07:48:43;4.00;99.90
54168;DHT22;40072;50.958;3.592;2023-02-28T07:51:09;4.10;99.90
54168;DHT22;40072;50.958;3.592;2023-02-28T07:53:34;4.20;99.90
54168;DHT22;40072;50.958;3.592;2023-02-28T07:56:02;4.20;99.90
54168;DHT22;40072;50.958;3.592;2023-02-28T07:58:29;4.20;99.90
54168;DHT22;40072;50.958;3.592;2023-02-28T08:00:55;3.90;99.90
54168;DHT22;40072;50.958;3.592;2023-02-28T08:03:22;3.90;99.90
54168;DHT22;40072;50.958;3.592;2023-02-28T08:05:49;3.40;99.90
54168;DHT22;40072;50.958;3.592;2023-02-28T08:08:15;3.20;99.90
54168;DHT22;40072;50.958;3.592;2023-02-28T08:10:42;3.30;99.90
54168;DHT22;40072;50.958;3.592;2023-02-28T08:13:08;3.20;99.90
54168;DHT22;40072;50.958;3.592;2023-02-28T08:15:34;3.20;99.90
54168;DHT22;40072;50.958;3.592;2023-02-28T08:18:00;3.20;99.90
54168;DHT22;40072;50.958;3.592;2023-02-28T08:20:25;3.30;99.90
54168;DHT22;40072;50.958;3.592;2023-02-28T08:22:51;3.40;99.90
54168;DHT22;40072;50.958;3.592;2023-02-28T08:25:17;3.80;99.90
54168;DHT22;40072;50.958;3.592;2023-02-28T08:27:43;4.20;99.90
54168;DHT22;40072;50.958;3.592;2023-02-28T08:30:13;4.70;99.90
54168;DHT22;40072;50.958;3.592;2023-02-28T08:32:39;5.20;99.90
54168;DHT22;40072;50.958;3.592;2023-02-28T08:35:06;4.70;99.90
54168;DHT22;40072;50.958;3.592;2023-02-28T08:37:32;4.40;99.90
54168;DHT22;40072;50.958;3.592;2023-02-28T08:39:57;4.40;99.90
54168;DHT22;40072;50.958;3.592;2023-02-28T08:42:23;4.70;99.90
54168;DHT22;40072;50.958;3.592;2023-02-28T08:44:49;4.50;99.90
54168;DHT22;40072;50.958;3.592;2023-02-28T08:47:15;4.40;99.90
54168;DHT22;40072;50.958;3.592;2023-02-28T08:49:41;4.60;99.90
54168;DHT22;40072;50.958;3.592;2023-02-28T08:52:06;4.60;99.90
54168;DHT22;40072;50.958;3.592;2023-02-28T08:54:32;4.80;99.90
54168;DHT22;40072;50.958;3.592;2023-02-28T08:56:59;4.60;99.90
54168;DHT22;40072;50.958;3.592;2023-02-28T08:59:25;4.30;99.90
54168;DHT22;40072;50.958;3.592;2023-02-28T09:01:51;4.40;99.90
54168;DHT22;40072;50.958;3.592;2023-02-28T09:04:17;4.10;99.90
54168;DHT22;40072;50.958;3.592;2023-02-28T09:06:42;3.80;99.90
54168;DHT22;40072;50.958;3.592;2023-02-28T09:09:09;3.80;99.90
54168;DHT22;40072;50.958;3.592;2023-02-28T09:11:35;3.80;99.90
54168;DHT22;40072;50.958;3.592;2023-02-28T09:14:02;3.90;99.90
54168;DHT22;40072;50.958;3.592;2023-02-28T09:16:29;3.90;99.90
54168;DHT22;40072;50.958;3.592;2023-02-28T09:18:56;3.60;99.90
54168;DHT22;40072;50.958;3.592;2023-02-28T09:21:22;3.80;99.90
54168;DHT22;40072;50.958;3.592;2023-02-28T09:23:49;3.60;99.90
54168;DHT22;40072;50.958;3.592;2023-02-28T09:26:18;3.40;99.90
54168;DHT22;40072;50.958;3.592;2023-02-28T09:28:44;3.40;99.90
54168;DHT22;40072;50.958;3.592;2023-02-28T09:31:17;3.40;99.90
54168;DHT22;40072;50.958;3.592;2023-02-28T09:33:47;3.40;99.90
54168;DHT22;40072;50.958;3.592;2023-02-28T09:36:13;3.50;99.90
54168;DHT22;40072;50.958;3.592;2023-02-28T09:38:38;3.70;99.90
54168;DHT22;40072;50.958;3.592;2023-02-28T09:43:47;3.90;99.90
54168;DHT22;40072;50.958;3.592;2023-02-28T09:46:37;3.70;99.90
54168;DHT22;40072;50.958;3.592;2023-02-28T09:49:10;3.80;99.90
54168;DHT22;40072;50.958;3.592;2023-02-28T09:54:22;3.70;99.90
54168;DHT22;40072;50.958;3.592;2023-02-28T10:05:57;3.90;99.90
54168;DHT22;40072;50.958;3.592;2023-02-28T10:08:27;3.90;99.90
54168;DHT22;40072;50.958;3.592;2023-02-28T10:11:01;3.90;99.90
54168;DHT22;40072;50.958;3.592;2023-02-28T10:21:47;3.80;99.90
54168;DHT22;40072;50.958;3.592;2023-02-28T10:26:59;4.20;99.90
54168;DHT22;40072;50.958;3.592;2023-02-28T10:29:25;3.90;99.90
54168;DHT22;40072;50.958;3.592;2023-02-28T10:31:51;4.10;99.90
54168;DHT22;40072;50.958;3.592;2023-02-28T10:34:17;4.10;99.80
54168;DHT22;40072;50.958;3.592;2023-02-28T10:36:43;4.60;99.40
54168;DHT22;40072;50.958;3.592;2023-02-28T10:39:44;4.90;98.80
54168;DHT22;40072;50.958;3.592;2023-02-28T10:42:25;4.70;98.40
54168;DHT22;40072;50.958;3.592;2023-02-28T10:45:30;4.60;98.70
54168;DHT22;40072;50.958;3.592;2023-02-28T10:47:59;4.30;98.90
54168;DHT22;40072;50.958;3.592;2023-02-28T10:50:29;4.30;99.00
54168;DHT22;40072;50.958;3.592;2023-02-28T10:53:10;4.30;99.40
54168;DHT22;40072;50.958;3.592;2023-02-28T10:55:40;4.70;98.50
54168;DHT22;40072;50.958;3.592;2023-02-28T10:58:21;4.80;98.00
54168;DHT22;40072;50.958;3.592;2023-02-28T11:00:47;5.50;96.80
54168;DHT22;40072;50.958;3.592;2023-02-28T11:03:32;5.60;95.30
54168;DHT22;40072;50.958;3.592;2023-02-28T11:06:04;5.60;94.10
54168;DHT22;40072;50.958;3.592;2023-02-28T11:08:30;5.70;94.40
54168;DHT22;40072;50.958;3.592;2023-02-28T11:10:58;6.40;95.30
54168;DHT22;40072;50.958;3.592;2023-02-28T11:13:35;7.60;93.40
54168;DHT22;40072;50.958;3.592;2023-02-28T11:16:05;8.80;91.00
54168;DHT22;40072;50.958;3.592;2023-02-28T11:18:41;8.40;91.40
54168;DHT22;40072;50.958;3.592;2023-02-28T11:21:09;9.60;87.70
54168;DHT22;40072;50.958;3.592;2023-02-28T11:23:36;9.10;88.40
54168;DHT22;40072;50.958;3.592;2023-02-28T11:26:05;8.50;88.90
54168;DHT22;40072;50.958;3.592;2023-02-28T11:28:44;8.50;90.60
54168;DHT22;40072;50.958;3.592;2023-02-28T11:33:45;7.10;91.10
54168;DHT22;40072;50.958;3.592;2023-02-28T11:38:42;8.40;90.40
54168;DHT22;40072;50.958;3.592;2023-02-28T11:41:35;9.80;88.30
54168;DHT22;40072;50.958;3.592;2023-02-28T11:46:58;11.10;83.90
54168;DHT22;40072;50.958;3.592;2023-02-28T11:49:45;10.20;85.40
54168;DHT22;40072;50.958;3.592;2023-02-28T11:52:29;9.70;83.50
54168;DHT22;40072;50.958;3.592;2023-02-28T12:01:02;8.50;86.60
54168;DHT22;40072;50.958;3.592;2023-02-28T12:04:03;8.90;88.50
54168;DHT22;40072;50.958;3.592;2023-02-28T12:06:41;10.10;85.00
54168;DHT22;40072;50.958;3.592;2023-02-28T12:17:51;8.50;85.30
54168;DHT22;40072;50.958;3.592;2023-02-28T12:26:32;8.10;84.10
54168;DHT22;40072;50.958;3.592;2023-02-28T12:32:18;8.20;83.30
54168;DHT22;40072;50.958;3.592;2023-02-28T12:34:52;8.10;82.40
54168;DHT22;40072;50.958;3.592;2023-02-28T12:37:27;7.80;82.60
54168;DHT22;40072;50.958;3.592;2023-02-28T12:40:01;7.60;83.90
54168;DHT22;40072;50.958;3.592;2023-02-28T12:42:36;8.40;82.10
54168;DHT22;40072;50.958;3.592;2023-02-28T12:45:16;8.30;82.80
54168;DHT22;40072;50.958;3.592;2023-02-28T12:47:44;8.50;80.00
54168;DHT22;40072;50.958;3.592;2023-02-28T12:50:12;8.20;80.70
54168;DHT22;40072;50.958;3.592;2023-02-28T12:53:02;9.00;79.10
54168;DHT22;40072;50.958;3.592;2023-02-28T12:58:05;9.30;77.70
54168;DHT22;40072;50.958;3.592;2023-02-28T13:00:38;9.40;77.90
54168;DHT22;40072;50.958;3.592;2023-02-28T13:03:22;9.00;77.80
54168;DHT22;40072;50.958;3.592;2023-02-28T13:09:14;11.00;74.60
54168;DHT22;40072;50.958;3.592;2023-02-28T13:11:49;9.30;75.30
54168;DHT22;40072;50.958;3.592;2023-02-28T13:19:31;9.90;75.50
54168;DHT22;40072;50.958;3.592;2023-02-28T13:21:58;9.10;76.30
54168;DHT22;40072;50.958;3.592;2023-02-28T13:24:44;8.90;75.90
54168;DHT22;40072;50.958;3.592;2023-02-28T13:27:20;8.40;76.10
54168;DHT22;40072;50.958;3.592;2023-02-28T13:29:50;8.40;75.80
54168;DHT22;40072;50.958;3.592;2023-02-28T13:32:35;9.00;74.70
54168;DHT22;40072;50.958;3.592;2023-02-28T13:37:34;8.40;73.00
54168;DHT22;40072;50.958;3.592;2023-02-28T13:40:27;8.70;75.50
54168;DHT22;40072;50.958;3.592;2023-02-28T13:42:54;8.80;74.10
54168;DHT22;40072;50.958;3.592;2023-02-28T13:45:29;9.50;72.70
54168;DHT22;40072;50.958;3.592;2023-02-28T13:48:16;8.80;73.50
54168;DHT22;40072;50.958;3.592;2023-02-28T13:50:43;9.30;73.80
54168;DHT22;40072;50.958;3.592;2023-02-28T13:56:09;7.80;76.90
54168;DHT22;40072;50.958;3.592;2023-02-28T14:01:49;7.90;77.00
54168;DHT22;40072;50.958;3.592;2023-02-28T14:06:56;7.50;75.50
54168;DHT22;40072;50.958;3.592;2023-02-28T14:09:32;7.60;75.50
54168;DHT22;40072;50.958;3.592;2023-02-28T14:17:53;7.40;76.20
54168;DHT22;40072;50.958;3.592;2023-02-28T14:20:21;7.60;76.30
54168;DHT22;40072;50.958;3.592;2023-02-28T14:23:15;7.50;75.80
54168;DHT22;40072;50.958;3.592;2023-02-28T14:37:33;7.70;75.90
54168;DHT22;40072;50.958;3.592;2023-02-28T14:40:00;8.10;76.60
54168;DHT22;40072;50.958;3.592;2023-02-28T14:42:33;8.00;76.20
54168;DHT22;40072;50.958;3.592;2023-02-28T14:44:59;7.70;75.80
54168;DHT22;40072;50.958;3.592;2023-02-28T14:47:28;8.30;76.00
54168;DHT22;40072;50.958;3.592;2023-02-28T14:49:57;8.00;75.40
54168;DHT22;40072;50.958;3.592;2023-02-28T14:52:29;7.80;76.30
54168;DHT22;40072;50.958;3.592;2023-02-28T14:55:01;7.80;77.40
54168;DHT22;40072;50.958;3.592;2023-02-28T14:57:32;7.90;75.80
54168;DHT22;40072;50.958;3.592;2023-02-28T15:02:41;8.00;77.30
54168;DHT22;40072;50.958;3.592;2023-02-28T15:05:31;7.40;78.00
54168;DHT22;40072;50.958;3.592;2023-02-28T15:08:12;7.60;78.20
54168;DHT22;40072;50.958;3.592;2023-02-28T15:10:43;7.90;77.60
54168;DHT22;40072;50.958;3.592;2023-02-28T15:13:14;7.60;77.40
54168;DHT22;40072;50.958;3.592;2023-02-28T15:15:59;8.30;76.90
54168;DHT22;40072;50.958;3.592;2023-02-28T15:18:47;8.40;76.60
54168;DHT22;40072;50.958;3.592;2023-02-28T15:21:32;8.30;76.40
54168;DHT22;40072;50.958;3.592;2023-02-28T15:26:34;6.90;78.30
54168;DHT22;40072;50.958;3.592;2023-02-28T15:29:06;7.10;78.10
54168;DHT22;40072;50.958;3.592;2023-02-28T15:31:34;7.00;77.80
54168;DHT22;40072;50.958;3.592;2023-02-28T15:34:05;6.90;77.50
54168;DHT22;40072;50.958;3.592;2023-02-28T15:36:34;7.00;78.20
54168;DHT22;40072;50.958;3.592;2023-02-28T15:39:17;7.00;77.60
54168;DHT22;40072;50.958;3.592;2023-02-28T15:41:43;6.70;78.10
54168;DHT22;40072;50.958;3.592;2023-02-28T15:44:33;6.20;79.90
54168;DHT22;40072;50.958;3.592;2023-02-28T15:47:21;6.60;79.70
54168;DHT22;40072;50.958;3.592;2023-02-28T15:50:02;6.70;79.10
54168;DHT22;40072;50.958;3.592;2023-02-28T15:52:40;7.10;79.50
54168;DHT22;40072;50.958;3.592;2023-02-28T15:57:39;7.40;79.10
54168;DHT22;40072;50.958;3.592;2023-02-28T16:00:11;7.90;77.50
54168;DHT22;40072;50.958;3.592;2023-02-28T16:02:38;7.40;78.80
54168;DHT22;40072;50.958;3.592;2023-02-28T16:07:41;6.60;79.80
54168;DHT22;40072;50.958;3.592;2023-02-28T16:10:09;6.40;81.30
54168;DHT22;40072;50.958;3.592;2023-02-28T16:12:37;6.50;81.30
54168;DHT22;40072;50.958;3.592;2023-02-28T16:15:28;6.60;80.70
54168;DHT22;40072;50.958;3.592;2023-02-28T16:17:55;6.60;80.40
54168;DHT22;40072;50.958;3.592;2023-02-28T16:22:47;6.30;82.00
54168;DHT22;40072;50.958;3.592;2023-02-28T16:25:19;6.30;82.00
54168;DHT22;40072;50.958;3.592;2023-02-28T16:27:48;5.90;82.50
54168;DHT22;40072;50.958;3.592;2023-02-28T16:30:19;5.80;82.80
54168;DHT22;40072;50.958;3.592;2023-02-28T16:32:45;5.50;84.30
54168;DHT22;40072;50.958;3.592;2023-02-28T16:35:11;5.60;84.50
54168;DHT22;40072;50.958;3.592;2023-02-28T16:37:39;5.90;84.10
54168;DHT22;40072;50.958;3.592;2023-02-28T16:40:06;6.20;84.20
54168;DHT22;40072;50.958;3.592;2023-02-28T16:42:33;6.10;83.10
54168;DHT22;40072;50.958;3.592;2023-02-28T16:44:59;5.90;83.30
54168;DHT22;40072;50.958;3.592;2023-02-28T16:47:24;5.60;85.10
54168;DHT22;40072;50.958;3.592;2023-02-28T16:49:52;5.30;85.90
54168;DHT22;40072;50.958;3.592;2023-02-28T16:52:18;5.20;86.00
54168;DHT22;40072;50.958;3.592;2023-02-28T16:54:43;5.20;87.30
54168;DHT22;40072;50.958;3.592;2023-02-28T16:57:27;5.00;87.10
54168;DHT22;40072;50.958;3.592;2023-02-28T16:59:53;5.00;87.70
54168;DHT22;40072;50.958;3.592;2023-02-28T17:02:19;5.20;87.30
54168;DHT22;40072;50.958;3.592;2023-02-28T17:04:45;5.00;87.80
54168;DHT22;40072;50.958;3.592;2023-02-28T17:07:13;4.90;87.80
54168;DHT22;40072;50.958;3.592;2023-02-28T17:09:39;4.80;88.00
54168;DHT22;40072;50.958;3.592;2023-02-28T17:12:05;4.90;88.40
54168;DHT22;40072;50.958;3.592;2023-02-28T17:14:31;4.80;88.00
54168;DHT22;40072;50.958;3.592;2023-02-28T17:16:56;4.60;89.30
54168;DHT22;40072;50.958;3.592;2023-02-28T17:19:22;4.40;90.10
54168;DHT22;40072;50.958;3.592;2023-02-28T17:21:48;4.40;90.10
54168;DHT22;40072;50.958;3.592;2023-02-28T17:24:13;4.40;90.20
54168;DHT22;40072;50.958;3.592;2023-02-28T17:26:40;4.30;90.30
54168;DHT22;40072;50.958;3.592;2023-02-28T17:29:18;4.30;90.30
54168;DHT22;40072;50.958;3.592;2023-02-28T17:31:44;4.20;90.60
54168;DHT22;40072;50.958;3.592;2023-02-28T17:34:10;4.20;90.60
54168;DHT22;40072;50.958;3.592;2023-02-28T17:36:36;4.20;90.80
54168;DHT22;40072;50.958;3.592;2023-02-28T17:39:04;4.10;90.70
54168;DHT22;40072;50.958;3.592;2023-02-28T17:41:30;3.90;91.10
54168;DHT22;40072;50.958;3.592;2023-02-28T17:43:56;3.90;91.50
54168;DHT22;40072;50.958;3.592;2023-02-28T17:46:24;4.10;91.40
54168;DHT22;40072;50.958;3.592;2023-02-28T17:48:52;4.20;91.30
54168;DHT22;40072;50.958;3.592;2023-02-28T17:51:19;3.90;91.30
54168;DHT22;40072;50.958;3.592;2023-02-28T17:53:45;3.90;91.70
54168;DHT22;40072;50.958;3.592;2023-02-28T17:56:17;3.80;91.80
54168;DHT22;40072;50.958;3.592;2023-02-28T17:58:43;3.70;91.90
54168;DHT22;40072;50.958;3.592;2023-02-28T18:01:09;3.70;92.00
54168;DHT22;40072;50.958;3.592;2023-02-28T18:03:35;3.80;92.00
54168;DHT22;40072;50.958;3.592;2023-02-28T18:06:01;3.80;92.20
54168;DHT22;40072;50.958;3.592;2023-02-28T18:08:27;4.00;92.00
54168;DHT22;40072;50.958;3.592;2023-02-28T18:10:53;4.00;92.10
54168;DHT22;40072;50.958;3.592;2023-02-28T18:13:18;3.90;91.90
54168;DHT22;40072;50.958;3.592;2023-02-28T18:15:44;4.00;92.10
54168;DHT22;40072;50.958;3.592;2023-02-28T18:18:10;4.10;91.90